sensor_id;sensor_type;location;lat;lon;timestamp;temperature;humidity
3100;DHT22;1560;52.746;13.474;2023-03-01T00:01:25;-2.40;99.90
3100;DHT22;1560;52.746;13.474;2023-03-01T00:03:54;-2.40;99.90
3100;DHT22;1560;52.746;13.474;2023-03-01T00:06:27;-2.50;99.90
3100;DHT22;1560;52.746;13.474;2023-03-01T00:11:34;-2.60;1.00
3100;DHT22;1560;52.746;13.474;2023-03-01T00:14:03;-2.60;1.00
3100;DHT22;1560;52.746;13.474;2023-03-01T00:16:36;-2.60;1.00
3100;DHT22;1560;52.746;13.474;2023-03-01T00:19:06;-2.60;1.00
3100;DHT22;1560;52.746;13.474;2023-03-01T00:21:35;-2.60;1.00
3100;DHT22;1560;52.746;13.474;2023-03-01T00:24:05;-2.60;1.00
3100;DHT22;1560;52.746;13.474;2023-03-01T00:26:34;-2.60;1.00
3100;DHT22;1560;52.746;13.474;2023-03-01T00:31:40;-2.70;1.00
3100;DHT22;1560;52.746;13.474;2023-03-01T00:34:14;-2.70;1.00
3100;DHT22;1560;52.746;13.474;2023-03-01T00:36:43;-2.70;1.00
3100;DHT22;1560;52.746;13.474;2023-03-01T00:39:13;-2.70;1.00
3100;DHT22;1560;52.746;13.474;2023-03-01T00:44:20;-2.70;1.00
3100;DHT22;1560;52.746;13.474;2023-03-01T00:46:49;-2.70;1.00
3100;DHT22;1560;52.746;13.474;2023-03-01T00:49:18;-2.70;1.00
3100;DHT22;1560;52.746;13.474;2023-03-01T00:51:46;-2.70;1.00
3100;DHT22;1560;52.746;13.474;2023-03-01T00:54:15;-2.80;1.00
3100;DHT22;1560;52.746;13.474;2023-03-01T00:56:44;-2.80;1.00
3100;DHT22;1560;52.746;13.474;2023-03-01T00:59:13;-2.80;1.00
3100;DHT22;1560;52.746;13.474;2023-03-01T01:01:42;-2.80;1.00
3100;DHT22;1560;52.746;13.474;2023-03-01T01:04:12;-2.80;1.00
3100;DHT22;1560;52.746;13.474;2023-03-01T01:06:43;-2.90;1.00
3100;DHT22;1560;52.746;13.474;2023-03-01T01:09:14;-2.90;1.00
3100;DHT22;1560;52.746;13.474;2023-03-01T01:16:59;-3.10;1.00
3100;DHT22;1560;52.746;13.474;2023-03-01T01:19:28;-3.10;1.00
3100;DHT22;1560;52.746;13.474;2023-03-01T01:24:33;-3.20;1.00
3100;DHT22;1560;52.746;13.474;2023-03-01T01:27:02;-3.20;1.00
3100;DHT22;1560;52.746;13.474;2023-03-01T01:29:32;-3.10;1.00
3100;DHT22;1560;52.746;13.474;2023-03-01T01:32:00;-3.10;1.00
3100;DHT22;1560;52.746;13.474;2023-03-01T01:37:07;-3.20;28.00
3100;DHT22;1560;52.746;13.474;2023-03-01T01:39:35;-3.20;34.60
3100;DHT22;1560;52.746;13.474;2023-03-01T01:45:28;-3.40;99.90
3100;DHT22;1560;52.746;13.474;2023-03-01T01:48:02;-3.40;99.90
3100;DHT22;1560;52.746;13.474;2023-03-01T01:50:32;-3.40;99.90
3100;DHT22;1560;52.746;13.474;2023-03-01T01:55:44;-3.30;99.90
3100;DHT22;1560;52.746;13.474;2023-03-01T01:58:15;-3.30;99.90
3100;DHT22;1560;52.746;13.474;2023-03-01T02:00:46;-3.30;99.90
3100;DHT22;1560;52.746;13.474;2023-03-01T02:03:18;-3.30;99.90
3100;DHT22;1560;52.746;13.474;2023-03-01T02:08:30;-3.30;99.90
3100;DHT22;1560;52.746;13.474;2023-03-01T02:11:01;-3.30;99.90
3100;DHT22;1560;52.746;13.474;2023-03-01T02:16:21;-3.20;99.90
3100;DHT22;1560;52.746;13.474;2023-03-01T02:24:19;-3.30;99.90
3100;DHT22;1560;52.746;13.474;2023-03-01T02:26:51;-3.30;99.90
3100;DHT22;1560;52.746;13.474;2023-03-01T02:29:21;-3.30;99.90
3100;DHT22;1560;52.746;13.474;2023-03-01T02:34:29;-3.30;99.90
3100;DHT22;1560;52.746;13.474;2023-03-01T02:37:01;-3.40;99.90
3100;DHT22;1560;52.746;13.474;2023-03-01T02:39:34;-3.40;99.90
3100;DHT22;1560;52.746;13.474;2023-03-01T02:44:42;-3.50;99.90
3100;DHT22;1560;52.746;13.474;2023-03-01T02:47:11;-3.50;99.90
3100;DHT22;1560;52.746;13.474;2023-03-01T02:49:40;-3.50;99.90
3100;DHT22;1560;52.746;13.474;2023-03-01T02:55:07;-3.60;99.90
3100;DHT22;1560;52.746;13.474;2023-03-01T02:57:39;-3.60;99.90
3100;DHT22;1560;52.746;13.474;2023-03-01T03:02:46;-3.60;1.00
3100;DHT22;1560;52.746;13.474;2023-03-01T03:05:18;-3.60;1.00
3100;DHT22;1560;52.746;13.474;2023-03-01T03:07:49;-3.60;1.00
3100;DHT22;1560;52.746;13.474;2023-03-01T03:10:20;-3.60;1.00
3100;DHT22;1560;52.746;13.474;2023-03-01T03:12:51;-3.60;1.00
3100;DHT22;1560;52.746;13.474;2023-03-01T03:15:21;-3.60;1.00
3100;DHT22;1560;52.746;13.474;2023-03-01T03:20:27;-3.60;99.90
3100;DHT22;1560;52.746;13.474;2023-03-01T03:22:58;-3.60;99.90
3100;DHT22;1560;52.746;13.474;2023-03-01T03:25:28;-3.70;99.90
3100;DHT22;1560;52.746;13.474;2023-03-01T03:27:58;-3.70;99.90
3100;DHT22;1560;52.746;13.474;2023-03-01T03:30:29;-3.60;99.90
3100;DHT22;1560;52.746;13.474;2023-03-01T03:35:38;-3.60;99.90
3100;DHT22;1560;52.746;13.474;2023-03-01T03:38:09;-3.70;99.90
3100;DHT22;1560;52.746;13.474;2023-03-01T03:43:20;-3.70;99.90
3100;DHT22;1560;52.746;13.474;2023-03-01T03:45:50;-3.70;99.90
3100;DHT22;1560;52.746;13.474;2023-03-01T03:48:19;-3.70;99.90
3100;DHT22;1560;52.746;13.474;2023-03-01T03:50:50;-3.80;99.90
3100;DHT22;1560;52.746;13.474;2023-03-01T03:53:20;-3.80;99.90
3100;DHT22;1560;52.746;13.474;2023-03-01T03:55:49;-3.90;1.00
3100;DHT22;1560;52.746;13.474;2023-03-01T03:58:20;-3.90;1.00
3100;DHT22;1560;52.746;13.474;2023-03-01T04:03:30;-3.80;99.90
3100;DHT22;1560;52.746;13.474;2023-03-01T04:06:00;-3.80;99.90
3100;DHT22;1560;52.746;13.474;2023-03-01T04:08:29;-3.80;99.90
3100;DHT22;1560;52.746;13.474;2023-03-01T04:11:01;-3.80;99.90
3100;DHT22;1560;52.746;13.474;2023-03-01T04:13:32;-4.00;1.00
3100;DHT22;1560;52.746;13.474;2023-03-01T04:18:38;-4.00;1.00
3100;DHT22;1560;52.746;13.474;2023-03-01T04:23:43;-3.90;99.90
3100;DHT22;1560;52.746;13.474;2023-03-01T04:26:12;-3.90;99.90
3100;DHT22;1560;52.746;13.474;2023-03-01T04:28:41;-3.90;99.90
3100;DHT22;1560;52.746;13.474;2023-03-01T04:31:14;-3.90;99.90
3100;DHT22;1560;52.746;13.474;2023-03-01T04:33:47;-3.90;99.90
3100;DHT22;1560;52.746;13.474;2023-03-01T04:38:53;-4.00;99.90
3100;DHT22;1560;52.746;13.474;2023-03-01T04:41:23;-4.00;99.90
3100;DHT22;1560;52.746;13.474;2023-03-01T04:43:53;-4.00;99.90
3100;DHT22;1560;52.746;13.474;2023-03-01T04:46:21;-4.00;99.90
3100;DHT22;1560;52.746;13.474;2023-03-01T04:51:28;-4.00;99.90
3100;DHT22;1560;52.746;13.474;2023-03-01T04:53:57;-4.00;99.90
3100;DHT22;1560;52.746;13.474;2023-03-01T04:56:25;-4.10;99.90
3100;DHT22;1560;52.746;13.474;2023-03-01T04:58:55;-4.10;99.90
3100;DHT22;1560;52.746;13.474;2023-03-01T05:01:24;-4.10;99.90
3100;DHT22;1560;52.746;13.474;2023-03-01T05:03:53;-4.10;99.90
3100;DHT22;1560;52.746;13.474;2023-03-01T05:08:58;-4.10;99.90
3100;DHT22;1560;52.746;13.474;2023-03-01T05:11:27;-4.10;99.90
3100;DHT22;1560;52.746;13.474;2023-03-01T05:16:51;-4.10;99.90
3100;DHT22;1560;52.746;13.474;2023-03-01T05:19:20;-4.20;99.90
3100;DHT22;1560;52.746;13.474;2023-03-01T05:21:50;-4.20;1.00
3100;DHT22;1560;52.746;13.474;2023-03-01T05:24:33;-4.20;99.90
3100;DHT22;1560;52.746;13.474;2023-03-01T05:27:03;-4.20;99.90
3100;DHT22;1560;52.746;13.474;2023-03-01T05:29:32;-4.20;99.90
3100;DHT22;1560;52.746;13.474;2023-03-01T05:34:43;-4.20;99.90
3100;DHT22;1560;52.746;13.474;2023-03-01T05:39:50;-4.20;99.90
3100;DHT22;1560;52.746;13.474;2023-03-01T05:42:19;-4.20;99.90
3100;DHT22;1560;52.746;13.474;2023-03-01T05:44:48;-4.20;99.90
3100;DHT22;1560;52.746;13.474;2023-03-01T06:00:26;-4.40;1.00
3100;DHT22;1560;52.746;13.474;2023-03-01T06:05:32;-4.40;31.20
3100;DHT22;1560;52.746;13.474;2023-03-01T06:08:01;-4.40;35.30
3100;DHT22;1560;52.746;13.474;2023-03-01T06:10:30;-4.40;32.60
3100;DHT22;1560;52.746;13.474;2023-03-01T06:12:59;-4.30;25.90
3100;DHT22;1560;52.746;13.474;2023-03-01T06:15:28;-4.30;22.20
3100;DHT22;1560;52.746;13.474;2023-03-01T06:20:35;-4.30;1.00
3100;DHT22;1560;52.746;13.474;2023-03-01T06:28:37;-4.20;1.00
3100;DHT22;1560;52.746;13.474;2023-03-01T06:31:06;-4.20;1.00
3100;DHT22;1560;52.746;13.474;2023-03-01T06:36:14;-4.20;1.00
3100;DHT22;1560;52.746;13.474;2023-03-01T06:38:45;-4.20;1.00
3100;DHT22;1560;52.746;13.474;2023-03-01T06:41:13;-4.20;1.00
3100;DHT22;1560;52.746;13.474;2023-03-01T06:43:45;-4.20;1.00
3100;DHT22;1560;52.746;13.474;2023-03-01T06:46:14;-4.20;1.00
3100;DHT22;1560;52.746;13.474;2023-03-01T06:48:44;-4.20;1.00
3100;DHT22;1560;52.746;13.474;2023-03-01T06:51:12;-4.20;23.40
3100;DHT22;1560;52.746;13.474;2023-03-01T06:53:41;-4.30;49.80
3100;DHT22;1560;52.746;13.474;2023-03-01T06:58:47;-4.20;62.00
3100;DHT22;1560;52.746;13.474;2023-03-01T07:03:52;-4.20;48.50
3100;DHT22;1560;52.746;13.474;2023-03-01T07:06:21;-4.10;37.00
3100;DHT22;1560;52.746;13.474;2023-03-01T07:08:51;-4.10;26.80
3100;DHT22;1560;52.746;13.474;2023-03-01T07:11:19;-4.00;20.80
3100;DHT22;1560;52.746;13.474;2023-03-01T07:16:51;-4.00;13.20
3100;DHT22;1560;52.746;13.474;2023-03-01T07:19:20;-4.00;35.90
3100;DHT22;1560;52.746;13.474;2023-03-01T07:21:50;-3.90;62.80
3100;DHT22;1560;52.746;13.474;2023-03-01T07:24:18;-3.90;67.90
3100;DHT22;1560;52.746;13.474;2023-03-01T07:29:26;-3.80;91.80
3100;DHT22;1560;52.746;13.474;2023-03-01T07:31:56;-3.80;99.90
3100;DHT22;1560;52.746;13.474;2023-03-01T07:34:26;-3.70;99.90
3100;DHT22;1560;52.746;13.474;2023-03-01T07:36:54;-3.60;99.90
3100;DHT22;1560;52.746;13.474;2023-03-01T07:39:23;-3.60;98.60
3100;DHT22;1560;52.746;13.474;2023-03-01T07:44:29;-3.50;94.00
3100;DHT22;1560;52.746;13.474;2023-03-01T07:46:57;-3.50;94.10
3100;DHT22;1560;52.746;13.474;2023-03-01T07:52:03;-3.40;98.10
3100;DHT22;1560;52.746;13.474;2023-03-01T07:54:32;-3.40;96.60
3100;DHT22;1560;52.746;13.474;2023-03-01T07:57:02;-3.30;91.30
3100;DHT22;1560;52.746;13.474;2023-03-01T07:59:30;-3.20;74.80
3100;DHT22;1560;52.746;13.474;2023-03-01T08:02:00;-3.10;81.50
3100;DHT22;1560;52.746;13.474;2023-03-01T08:04:29;-3.00;99.90
3100;DHT22;1560;52.746;13.474;2023-03-01T08:06:57;-2.80;99.90
3100;DHT22;1560;52.746;13.474;2023-03-01T08:12:03;-2.50;99.90
3100;DHT22;1560;52.746;13.474;2023-03-01T08:14:32;-2.30;99.90
3100;DHT22;1560;52.746;13.474;2023-03-01T08:17:01;-2.10;99.90
3100;DHT22;1560;52.746;13.474;2023-03-01T08:19:53;-1.90;99.90
3100;DHT22;1560;52.746;13.474;2023-03-01T08:22:22;-1.70;99.90
3100;DHT22;1560;52.746;13.474;2023-03-01T08:24:51;-1.70;99.90
3100;DHT22;1560;52.746;13.474;2023-03-01T08:27:20;-1.50;99.90
3100;DHT22;1560;52.746;13.474;2023-03-01T08:29:49;-1.30;99.90
3100;DHT22;1560;52.746;13.474;2023-03-01T08:32:21;-1.20;99.90
3100;DHT22;1560;52.746;13.474;2023-03-01T08:34:50;-1.20;99.90
3100;DHT22;1560;52.746;13.474;2023-03-01T08:37:18;-1.10;99.90
3100;DHT22;1560;52.746;13.474;2023-03-01T08:39:47;-1.10;99.90
3100;DHT22;1560;52.746;13.474;2023-03-01T08:42:16;-1.00;99.90
3100;DHT22;1560;52.746;13.474;2023-03-01T08:44:45;-0.90;99.90
3100;DHT22;1560;52.746;13.474;2023-03-01T08:49:50;-0.70;39.00
3100;DHT22;1560;52.746;13.474;2023-03-01T08:52:20;-0.60;1.00
3100;DHT22;1560;52.746;13.474;2023-03-01T08:54:50;-0.50;1.00
3100;DHT22;1560;52.746;13.474;2023-03-01T08:59:55;-0.40;99.90
3100;DHT22;1560;52.746;13.474;2023-03-01T09:02:24;-0.40;99.90
3100;DHT22;1560;52.746;13.474;2023-03-01T09:04:52;-0.30;99.90
3100;DHT22;1560;52.746;13.474;2023-03-01T09:09:58;0.10;1.00
3100;DHT22;1560;52.746;13.474;2023-03-01T09:15:04;0.40;1.00
3100;DHT22;1560;52.746;13.474;2023-03-01T09:17:33;0.50;2.70
3100;DHT22;1560;52.746;13.474;2023-03-01T09:20:02;0.90;1.00
3100;DHT22;1560;52.746;13.474;2023-03-01T09:22:34;1.40;99.90
3100;DHT22;1560;52.746;13.474;2023-03-01T09:25:03;2.10;1.00
3100;DHT22;1560;52.746;13.474;2023-03-01T09:30:11;2.80;1.00
3100;DHT22;1560;52.746;13.474;2023-03-01T09:32:40;2.80;99.90
3100;DHT22;1560;52.746;13.474;2023-03-01T09:35:10;2.90;99.90
3100;DHT22;1560;52.746;13.474;2023-03-01T09:37:39;2.90;99.90
3100;DHT22;1560;52.746;13.474;2023-03-01T09:40:14;3.00;1.00
3100;DHT22;1560;52.746;13.474;2023-03-01T09:42:52;3.00;1.00
3100;DHT22;1560;52.746;13.474;2023-03-01T09:45:28;3.00;1.00
3100;DHT22;1560;52.746;13.474;2023-03-01T09:47:58;3.10;99.90
3100;DHT22;1560;52.746;13.474;2023-03-01T09:53:13;3.20;99.90
3100;DHT22;1560;52.746;13.474;2023-03-01T09:55:44;3.20;1.00
3100;DHT22;1560;52.746;13.474;2023-03-01T09:58:33;3.20;99.90
3100;DHT22;1560;52.746;13.474;2023-03-01T10:03:42;3.30;1.00
3100;DHT22;1560;52.746;13.474;2023-03-01T10:06:14;3.30;1.00
3100;DHT22;1560;52.746;13.474;2023-03-01T10:08:47;3.20;1.00
3100;DHT22;1560;52.746;13.474;2023-03-01T10:11:21;3.30;99.90
3100;DHT22;1560;52.746;13.474;2023-03-01T10:16:34;3.50;1.00
3100;DHT22;1560;52.746;13.474;2023-03-01T10:19:05;3.60;1.00
3100;DHT22;1560;52.746;13.474;2023-03-01T10:21:37;3.70;1.00
3100;DHT22;1560;52.746;13.474;2023-03-01T10:26:52;4.80;99.90
3100;DHT22;1560;52.746;13.474;2023-03-01T10:32:04;5.90;99.90
3100;DHT22;1560;52.746;13.474;2023-03-01T10:34:36;6.00;99.90
3100;DHT22;1560;52.746;13.474;2023-03-01T10:37:12;5.90;1.00
3100;DHT22;1560;52.746;13.474;2023-03-01T10:39:56;6.20;28.00
3100;DHT22;1560;52.746;13.474;2023-03-01T10:45:30;6.50;59.60
3100;DHT22;1560;52.746;13.474;2023-03-01T10:48:05;6.70;99.90
3100;DHT22;1560;52.746;13.474;2023-03-01T10:50:34;6.60;99.90
3100;DHT22;1560;52.746;13.474;2023-03-01T10:53:08;7.00;1.00
3100;DHT22;1560;52.746;13.474;2023-03-01T10:58:19;7.20;99.90
3100;DHT22;1560;52.746;13.474;2023-03-01T11:00:51;6.80;19.40
3100;DHT22;1560;52.746;13.474;2023-03-01T11:03:23;6.40;1.00
3100;DHT22;1560;52.746;13.474;2023-03-01T11:08:37;5.80;99.90
3100;DHT22;1560;52.746;13.474;2023-03-01T11:13:52;6.20;99.90
3100;DHT22;1560;52.746;13.474;2023-03-01T11:16:34;6.50;99.90
3100;DHT22;1560;52.746;13.474;2023-03-01T11:19:19;6.60;1.00
3100;DHT22;1560;52.746;13.474;2023-03-01T11:21:59;6.30;99.90
3100;DHT22;1560;52.746;13.474;2023-03-01T11:27:18;6.60;84.90
3100;DHT22;1560;52.746;13.474;2023-03-01T11:29:53;6.80;99.90
3100;DHT22;1560;52.746;13.474;2023-03-01T11:35:05;7.00;72.20
3100;DHT22;1560;52.746;13.474;2023-03-01T11:40:20;7.30;1.00
3100;DHT22;1560;52.746;13.474;2023-03-01T11:42:57;7.20;99.90
3100;DHT22;1560;52.746;13.474;2023-03-01T11:48:27;7.30;99.90
3100;DHT22;1560;52.746;13.474;2023-03-01T11:50:58;7.40;1.00
3100;DHT22;1560;52.746;13.474;2023-03-01T11:53:40;7.60;1.00
3100;DHT22;1560;52.746;13.474;2023-03-01T11:59:10;7.70;1.00
3100;DHT22;1560;52.746;13.474;2023-03-01T12:04:34;7.30;1.00
3100;DHT22;1560;52.746;13.474;2023-03-01T12:07:05;7.50;96.50
3100;DHT22;1560;52.746;13.474;2023-03-01T12:09:52;7.50;1.00
3100;DHT22;1560;52.746;13.474;2023-03-01T12:15:26;7.20;1.00
3100;DHT22;1560;52.746;13.474;2023-03-01T12:23:43;7.60;1.00
3100;DHT22;1560;52.746;13.474;2023-03-01T12:26:16;7.70;1.00
3100;DHT22;1560;52.746;13.474;2023-03-01T12:29:02;7.70;1.00
3100;DHT22;1560;52.746;13.474;2023-03-01T12:31:41;7.90;1.00
3100;DHT22;1560;52.746;13.474;2023-03-01T12:34:19;7.90;1.00
3100;DHT22;1560;52.746;13.474;2023-03-01T12:37:01;8.20;1.00
3100;DHT22;1560;52.746;13.474;2023-03-01T12:39:39;8.50;1.00
3100;DHT22;1560;52.746;13.474;2023-03-01T12:45:01;8.80;1.00
3100;DHT22;1560;52.746;13.474;2023-03-01T12:50:20;9.20;1.00
3100;DHT22;1560;52.746;13.474;2023-03-01T12:52:53;9.30;1.00
3100;DHT22;1560;52.746;13.474;2023-03-01T12:55:29;9.40;1.00
3100;DHT22;1560;52.746;13.474;2023-03-01T12:58:02;9.30;1.00
3100;DHT22;1560;52.746;13.474;2023-03-01T13:03:18;9.30;1.00
3100;DHT22;1560;52.746;13.474;2023-03-01T13:05:55;9.30;1.00
3100;DHT22;1560;52.746;13.474;2023-03-01T13:08:27;9.20;1.00
3100;DHT22;1560;52.746;13.474;2023-03-01T13:10:58;9.00;1.00
3100;DHT22;1560;52.746;13.474;2023-03-01T13:13:29;9.00;1.00
3100;DHT22;1560;52.746;13.474;2023-03-01T13:16:19;8.80;1.00
3100;DHT22;1560;52.746;13.474;2023-03-01T13:21:31;8.20;1.00
3100;DHT22;1560;52.746;13.474;2023-03-01T13:23:59;7.80;1.00
3100;DHT22;1560;52.746;13.474;2023-03-01T13:26:28;7.70;1.00
3100;DHT22;1560;52.746;13.474;2023-03-01T13:28:58;7.60;1.00
3100;DHT22;1560;52.746;13.474;2023-03-01T13:32:06;7.50;1.00
3100;DHT22;1560;52.746;13.474;2023-03-01T13:34:44;7.40;1.00
3100;DHT22;1560;52.746;13.474;2023-03-01T13:37:24;7.40;1.00
3100;DHT22;1560;52.746;13.474;2023-03-01T13:39:54;7.40;1.00
3100;DHT22;1560;52.746;13.474;2023-03-01T13:42:37;7.30;1.00
3100;DHT22;1560;52.746;13.474;2023-03-01T13:45:20;7.30;1.00
3100;DHT22;1560;52.746;13.474;2023-03-01T13:47:53;7.20;1.00
3100;DHT22;1560;52.746;13.474;2023-03-01T13:50:27;7.20;1.00
3100;DHT22;1560;52.746;13.474;2023-03-01T13:52:59;7.20;1.00
3100;DHT22;1560;52.746;13.474;2023-03-01T13:58:14;7.10;1.00
3100;DHT22;1560;52.746;13.474;2023-03-01T14:00:43;7.00;1.00
3100;DHT22;1560;52.746;13.474;2023-03-01T14:03:15;6.90;1.00
3100;DHT22;1560;52.746;13.474;2023-03-01T14:05:57;7.00;1.00
3100;DHT22;1560;52.746;13.474;2023-03-01T14:08:22;7.00;1.00
3100;DHT22;1560;52.746;13.474;2023-03-01T14:13:57;7.00;1.00
3100;DHT22;1560;52.746;13.474;2023-03-01T14:16:31;7.10;1.00
3100;DHT22;1560;52.746;13.474;2023-03-01T14:19:07;7.00;1.00
3100;DHT22;1560;52.746;13.474;2023-03-01T14:21:36;7.00;1.00
3100;DHT22;1560;52.746;13.474;2023-03-01T14:24:13;7.00;1.00
3100;DHT22;1560;52.746;13.474;2023-03-01T14:26:43;7.00;1.00
3100;DHT22;1560;52.746;13.474;2023-03-01T14:29:25;7.00;1.00
3100;DHT22;1560;52.746;13.474;2023-03-01T14:31:54;7.00;1.00
3100;DHT22;1560;52.746;13.474;2023-03-01T14:34:24;7.00;1.00
3100;DHT22;1560;52.746;13.474;2023-03-01T14:36:53;6.90;1.00
3100;DHT22;1560;52.746;13.474;2023-03-01T14:39:25;6.90;5.50
3100;DHT22;1560;52.746;13.474;2023-03-01T14:41:54;6.90;64.50
3100;DHT22;1560;52.746;13.474;2023-03-01T14:44:24;6.90;1.00
3100;DHT22;1560;52.746;13.474;2023-03-01T14:49:31;6.90;83.30
3100;DHT22;1560;52.746;13.474;2023-03-01T14:52:03;6.90;10.00
3100;DHT22;1560;52.746;13.474;2023-03-01T14:57:15;6.80;14.80
3100;DHT22;1560;52.746;13.474;2023-03-01T15:02:22;6.70;99.90
3100;DHT22;1560;52.746;13.474;2023-03-01T15:04:54;6.70;99.90
3100;DHT22;1560;52.746;13.474;2023-03-01T15:07:26;6.70;99.90
3100;DHT22;1560;52.746;13.474;2023-03-01T15:12:39;6.60;95.90
3100;DHT22;1560;52.746;13.474;2023-03-01T15:15:36;6.50;99.90
3100;DHT22;1560;52.746;13.474;2023-03-01T15:18:15;6.50;99.90
3100;DHT22;1560;52.746;13.474;2023-03-01T15:23:24;6.50;99.90
3100;DHT22;1560;52.746;13.474;2023-03-01T15:28:33;6.40;99.90
3100;DHT22;1560;52.746;13.474;2023-03-01T15:31:20;6.30;99.90
3100;DHT22;1560;52.746;13.474;2023-03-01T15:36:37;6.30;99.90
3100;DHT22;1560;52.746;13.474;2023-03-01T15:39:35;6.30;99.90
3100;DHT22;1560;52.746;13.474;2023-03-01T15:42:08;6.30;99.90
3100;DHT22;1560;52.746;13.474;2023-03-01T15:44:40;6.30;99.90
3100;DHT22;1560;52.746;13.474;2023-03-01T15:47:28;6.20;99.90
3100;DHT22;1560;52.746;13.474;2023-03-01T15:49:58;6.20;1.00
3100;DHT22;1560;52.746;13.474;2023-03-01T15:55:14;6.00;99.90
3100;DHT22;1560;52.746;13.474;2023-03-01T15:57:38;6.00;1.00
3100;DHT22;1560;52.746;13.474;2023-03-01T16:00:14;6.00;1.00
3100;DHT22;1560;52.746;13.474;2023-03-01T17:00:16;6.00;1.00
3100;DHT22;1560;52.746;13.474;2023-03-01T17:15:53;4.50;99.90
3100;DHT22;1560;52.746;13.474;2023-03-01T17:18:22;4.10;99.90
3100;DHT22;1560;52.746;13.474;2023-03-01T17:23:29;4.00;1.00
3100;DHT22;1560;52.746;13.474;2023-03-01T17:25:58;4.00;11.40
3100;DHT22;1560;52.746;13.474;2023-03-01T17:28:28;3.90;1.00
3100;DHT22;1560;52.746;13.474;2023-03-01T17:30:59;3.80;99.90
3100;DHT22;1560;52.746;13.474;2023-03-01T17:33:28;3.80;1.00
3100;DHT22;1560;52.746;13.474;2023-03-01T17:35:58;3.70;99.90
3100;DHT22;1560;52.746;13.474;2023-03-01T17:41:11;3.60;99.90
3100;DHT22;1560;52.746;13.474;2023-03-01T17:43:43;3.60;99.90
3100;DHT22;1560;52.746;13.474;2023-03-01T17:46:13;3.50;1.00
3100;DHT22;1560;52.746;13.474;2023-03-01T17:51:20;3.40;99.90
3100;DHT22;1560;52.746;13.474;2023-03-01T17:53:48;3.30;1.00
3100;DHT22;1560;52.746;13.474;2023-03-01T17:56:17;3.30;63.00
3100;DHT22;1560;52.746;13.474;2023-03-01T17:58:46;3.20;99.90
3100;DHT22;1560;52.746;13.474;2023-03-01T18:01:17;3.10;99.90
3100;DHT22;1560;52.746;13.474;2023-03-01T18:06:24;3.00;99.90
3100;DHT22;1560;52.746;13.474;2023-03-01T18:08:54;3.00;99.90
3100;DHT22;1560;52.746;13.474;2023-03-01T18:11:23;3.00;1.00
3100;DHT22;1560;52.746;13.474;2023-03-01T18:13:54;2.90;1.00
3100;DHT22;1560;52.746;13.474;2023-03-01T18:16:23;2.80;1.00
3100;DHT22;1560;52.746;13.474;2023-03-01T18:21:29;2.70;99.90
3100;DHT22;1560;52.746;13.474;2023-03-01T18:23:58;2.70;99.90
3100;DHT22;1560;52.746;13.474;2023-03-01T18:26:28;2.70;1.00
3100;DHT22;1560;52.746;13.474;2023-03-01T18:31:33;2.60;99.90
3100;DHT22;1560;52.746;13.474;2023-03-01T18:34:02;2.60;1.00
3100;DHT22;1560;52.746;13.474;2023-03-01T18:36:33;2.50;33.70
3100;DHT22;1560;52.746;13.474;2023-03-01T18:41:39;2.40;99.90
3100;DHT22;1560;52.746;13.474;2023-03-01T18:44:08;2.40;1.00
3100;DHT22;1560;52.746;13.474;2023-03-01T18:46:37;2.30;1.00
3100;DHT22;1560;52.746;13.474;2023-03-01T18:49:07;2.30;1.00
3100;DHT22;1560;52.746;13.474;2023-03-01T18:54:12;2.20;27.00
3100;DHT22;1560;52.746;13.474;2023-03-01T18:56:41;2.10;99.90
3100;DHT22;1560;52.746;13.474;2023-03-01T18:59:11;2.00;99.90
3100;DHT22;1560;52.746;13.474;2023-03-01T19:01:40;2.00;99.90
3100;DHT22;1560;52.746;13.474;2023-03-01T19:04:09;1.90;99.90
3100;DHT22;1560;52.746;13.474;2023-03-01T19:06:38;1.80;99.90
3100;DHT22;1560;52.746;13.474;2023-03-01T19:11:43;1.80;1.00
3100;DHT22;1560;52.746;13.474;2023-03-01T19:14:12;1.80;1.00
3100;DHT22;1560;52.746;13.474;2023-03-01T19:16:41;1.70;1.00
3100;DHT22;1560;52.746;13.474;2023-03-01T19:21:46;1.50;13.90
3100;DHT22;1560;52.746;13.474;2023-03-01T19:24:15;1.40;94.30
3100;DHT22;1560;52.746;13.474;2023-03-01T19:26:43;1.40;99.90
3100;DHT22;1560;52.746;13.474;2023-03-01T19:29:12;1.40;99.90
3100;DHT22;1560;52.746;13.474;2023-03-01T19:34:17;1.30;99.90
3100;DHT22;1560;52.746;13.474;2023-03-01T19:36:48;1.30;99.90
3100;DHT22;1560;52.746;13.474;2023-03-01T19:41:53;1.30;99.90
3100;DHT22;1560;52.746;13.474;2023-03-01T19:44:22;1.20;99.90
3100;DHT22;1560;52.746;13.474;2023-03-01T19:46:52;1.20;99.90
3100;DHT22;1560;52.746;13.474;2023-03-01T19:49:21;1.20;99.90
3100;DHT22;1560;52.746;13.474;2023-03-01T19:51:50;1.20;99.90
3100;DHT22;1560;52.746;13.474;2023-03-01T19:54:19;1.20;99.90
3100;DHT22;1560;52.746;13.474;2023-03-01T19:59:25;1.10;99.90
3100;DHT22;1560;52.746;13.474;2023-03-01T20:04:31;1.10;99.90
3100;DHT22;1560;52.746;13.474;2023-03-01T20:07:00;1.00;99.90
3100;DHT22;1560;52.746;13.474;2023-03-01T20:09:28;1.00;99.90
3100;DHT22;1560;52.746;13.474;2023-03-01T20:14:34;0.90;99.90
3100;DHT22;1560;52.746;13.474;2023-03-01T20:17:02;0.90;99.90
3100;DHT22;1560;52.746;13.474;2023-03-01T20:19:31;0.90;99.90
3100;DHT22;1560;52.746;13.474;2023-03-01T20:24:36;0.80;99.90
3100;DHT22;1560;52.746;13.474;2023-03-01T20:27:05;0.70;99.90
3100;DHT22;1560;52.746;13.474;2023-03-01T20:29:34;0.70;99.90
3100;DHT22;1560;52.746;13.474;2023-03-01T20:34:39;0.60;99.90
3100;DHT22;1560;52.746;13.474;2023-03-01T20:37:08;0.60;99.90
3100;DHT22;1560;52.746;13.474;2023-03-01T20:39:37;0.50;99.90
3100;DHT22;1560;52.746;13.474;2023-03-01T20:42:06;0.50;99.90
3100;DHT22;1560;52.746;13.474;2023-03-01T20:44:35;0.50;99.90
3100;DHT22;1560;52.746;13.474;2023-03-01T20:47:05;0.50;99.90
3100;DHT22;1560;52.746;13.474;2023-03-01T20:49:34;0.50;99.90
3100;DHT22;1560;52.746;13.474;2023-03-01T20:52:04;0.50;1.00
3100;DHT22;1560;52.746;13.474;2023-03-01T20:54:33;0.50;1.00
3100;DHT22;1560;52.746;13.474;2023-03-01T20:57:02;0.50;1.00
3100;DHT22;1560;52.746;13.474;2023-03-01T21:02:09;0.40;1.00
3100;DHT22;1560;52.746;13.474;2023-03-01T21:04:38;0.40;1.00
3100;DHT22;1560;52.746;13.474;2023-03-01T21:07:07;0.40;1.00
3100;DHT22;1560;52.746;13.474;2023-03-01T21:12:12;0.30;1.00
3100;DHT22;1560;52.746;13.474;2023-03-01T21:14:41;0.30;1.00
3100;DHT22;1560;52.746;13.474;2023-03-01T21:17:12;0.30;1.00
3100;DHT22;1560;52.746;13.474;2023-03-01T21:19:43;0.30;1.00
3100;DHT22;1560;52.746;13.474;2023-03-01T21:22:13;0.30;1.00
3100;DHT22;1560;52.746;13.474;2023-03-01T21:24:42;0.20;1.00
3100;DHT22;1560;52.746;13.474;2023-03-01T21:29:47;0.20;1.00
3100;DHT22;1560;52.746;13.474;2023-03-01T21:32:17;0.20;1.00
3100;DHT22;1560;52.746;13.474;2023-03-01T21:37:22;0.20;1.00
3100;DHT22;1560;52.746;13.474;2023-03-01T21:39:54;0.10;1.00
3100;DHT22;1560;52.746;13.474;2023-03-01T21:42:23;0.10;1.00
3100;DHT22;1560;52.746;13.474;2023-03-01T21:44:52;0.00;1.00
3100;DHT22;1560;52.746;13.474;2023-03-01T21:47:21;0.00;18.50
3100;DHT22;1560;52.746;13.474;2023-03-01T21:49:50;-0.20;35.00
3100;DHT22;1560;52.746;13.474;2023-03-01T21:52:18;-0.40;99.90
3100;DHT22;1560;52.746;13.474;2023-03-01T21:57:24;-0.60;1.00
3100;DHT22;1560;52.746;13.474;2023-03-01T21:59:53;-0.70;1.00
3100;DHT22;1560;52.746;13.474;2023-03-01T22:02:21;-0.70;1.00
3100;DHT22;1560;52.746;13.474;2023-03-01T22:04:52;-0.70;1.00
3100;DHT22;1560;52.746;13.474;2023-03-01T22:07:24;-0.70;1.00
3100;DHT22;1560;52.746;13.474;2023-03-01T22:12:29;-0.70;1.00
3100;DHT22;1560;52.746;13.474;2023-03-01T22:14:58;-0.70;1.00
3100;DHT22;1560;52.746;13.474;2023-03-01T22:17:27;-0.60;1.00
3100;DHT22;1560;52.746;13.474;2023-03-01T22:19:56;-0.50;1.00
3100;DHT22;1560;52.746;13.474;2023-03-01T22:22:25;-0.50;1.00